Terminal Aerodrome Forecast
Issued by NWS Topeka, KS

Home | Current Version | Previous Version | Text Only | Print | Product List | Glossary On
Versions: 1 2 3 4 5 6 7 8 9 10 11 12 13 14 15 16 17 18 19 20 21 22 23 24 25 26 27
451
FTUS43 KTOP 280520
TAFTOP
TAF
KTOP 280520Z 2806/2906 08009KT P6SM -SHRA VCTS SCT020 OVC070CB
     FM280900 09013KT P6SM SHRA VCTS SCT018 OVC035CB
     FM281100 11011KT P6SM VCSH OVC012
     FM281700 16007KT P6SM OVC019
     FM282100 VRB05KT P6SM BKN035
     FM290100 02008KT P6SM OVC021=

USA.gov is the U.S. government's official web portal to all federal, state and local government web resources and services.